sensor_id;sensor_type;location;lat;lon;timestamp;temperature;humidity
74934;DHT22;63499;53.232;7.492;2023-04-03T00:01:57;3.30;99.90
74934;DHT22;63499;53.232;7.492;2023-04-03T00:04:25;3.30;99.90
74934;DHT22;63499;53.232;7.492;2023-04-03T00:06:51;3.20;99.90
74934;DHT22;63499;53.232;7.492;2023-04-03T00:09:19;3.20;99.90
74934;DHT22;63499;53.232;7.492;2023-04-03T00:11:45;3.20;99.90
74934;DHT22;63499;53.232;7.492;2023-04-03T00:14:11;3.20;99.90
74934;DHT22;63499;53.232;7.492;2023-04-03T00:16:37;3.20;99.90
74934;DHT22;63499;53.232;7.492;2023-04-03T00:19:04;3.20;99.90
74934;DHT22;63499;53.232;7.492;2023-04-03T00:21:30;3.20;99.90
74934;DHT22;63499;53.232;7.492;2023-04-03T00:23:56;3.10;99.90
74934;DHT22;63499;53.232;7.492;2023-04-03T00:26:23;3.10;99.90
74934;DHT22;63499;53.232;7.492;2023-04-03T00:28:50;3.10;99.90
74934;DHT22;63499;53.232;7.492;2023-04-03T00:31:16;3.00;99.90
74934;DHT22;63499;53.232;7.492;2023-04-03T00:33:43;3.00;99.90
74934;DHT22;63499;53.232;7.492;2023-04-03T00:36:09;3.00;99.90
74934;DHT22;63499;53.232;7.492;2023-04-03T00:38:36;3.00;99.90
74934;DHT22;63499;53.232;7.492;2023-04-03T00:41:02;2.90;99.90
74934;DHT22;63499;53.232;7.492;2023-04-03T00:43:30;2.90;99.90
74934;DHT22;63499;53.232;7.492;2023-04-03T00:45:57;2.80;99.90
74934;DHT22;63499;53.232;7.492;2023-04-03T00:48:35;2.80;99.90
74934;DHT22;63499;53.232;7.492;2023-04-03T00:51:02;2.80;99.90
74934;DHT22;63499;53.232;7.492;2023-04-03T00:53:33;2.80;99.90
74934;DHT22;63499;53.232;7.492;2023-04-03T00:56:02;2.80;99.90
74934;DHT22;63499;53.232;7.492;2023-04-03T00:58:33;2.80;99.90
74934;DHT22;63499;53.232;7.492;2023-04-03T01:01:00;2.80;99.90
74934;DHT22;63499;53.232;7.492;2023-04-03T01:03:30;2.80;99.90
74934;DHT22;63499;53.232;7.492;2023-04-03T01:05:59;2.70;99.90
74934;DHT22;63499;53.232;7.492;2023-04-03T01:08:25;2.70;99.90
74934;DHT22;63499;53.232;7.492;2023-04-03T01:10:52;2.60;99.90
74934;DHT22;63499;53.232;7.492;2023-04-03T01:13:27;2.60;99.90
74934;DHT22;63499;53.232;7.492;2023-04-03T01:15:54;2.60;99.90
74934;DHT22;63499;53.232;7.492;2023-04-03T01:18:22;2.50;99.90
74934;DHT22;63499;53.232;7.492;2023-04-03T01:23:56;2.40;99.90
74934;DHT22;63499;53.232;7.492;2023-04-03T01:26:15;2.40;99.90
74934;DHT22;63499;53.232;7.492;2023-04-03T01:28:41;2.40;99.90
74934;DHT22;63499;53.232;7.492;2023-04-03T01:33:47;2.30;99.90
74934;DHT22;63499;53.232;7.492;2023-04-03T01:36:34;2.20;99.90
74934;DHT22;63499;53.232;7.492;2023-04-03T01:38:59;2.30;99.90
74934;DHT22;63499;53.232;7.492;2023-04-03T01:41:26;2.20;99.90
74934;DHT22;63499;53.232;7.492;2023-04-03T01:43:57;2.20;99.90
74934;DHT22;63499;53.232;7.492;2023-04-03T01:46:24;2.20;99.90
74934;DHT22;63499;53.232;7.492;2023-04-03T01:48:50;2.10;99.90
74934;DHT22;63499;53.232;7.492;2023-04-03T01:51:16;2.10;99.90
74934;DHT22;63499;53.232;7.492;2023-04-03T01:53:43;2.00;99.90
74934;DHT22;63499;53.232;7.492;2023-04-03T01:56:09;2.00;99.90
74934;DHT22;63499;53.232;7.492;2023-04-03T01:58:36;2.00;99.90
74934;DHT22;63499;53.232;7.492;2023-04-03T02:01:02;2.00;99.90
74934;DHT22;63499;53.232;7.492;2023-04-03T02:03:31;1.90;99.90
74934;DHT22;63499;53.232;7.492;2023-04-03T02:05:58;2.00;99.90
74934;DHT22;63499;53.232;7.492;2023-04-03T02:08:24;1.90;99.90
74934;DHT22;63499;53.232;7.492;2023-04-03T02:10:50;1.90;99.90
74934;DHT22;63499;53.232;7.492;2023-04-03T02:13:17;1.90;99.90
74934;DHT22;63499;53.232;7.492;2023-04-03T02:15:44;1.80;99.90
74934;DHT22;63499;53.232;7.492;2023-04-03T02:18:11;1.70;99.90
74934;DHT22;63499;53.232;7.492;2023-04-03T02:20:38;1.70;99.90
74934;DHT22;63499;53.232;7.492;2023-04-03T02:23:05;1.70;99.90
74934;DHT22;63499;53.232;7.492;2023-04-03T02:25:31;1.60;99.90
74934;DHT22;63499;53.232;7.492;2023-04-03T02:27:58;1.60;99.90
74934;DHT22;63499;53.232;7.492;2023-04-03T02:30:24;1.60;99.90
74934;DHT22;63499;53.232;7.492;2023-04-03T02:32:51;1.60;99.90
74934;DHT22;63499;53.232;7.492;2023-04-03T02:35:18;1.50;99.90
74934;DHT22;63499;53.232;7.492;2023-04-03T02:37:45;1.50;99.90
74934;DHT22;63499;53.232;7.492;2023-04-03T02:40:11;1.50;99.90
74934;DHT22;63499;53.232;7.492;2023-04-03T02:42:37;1.60;99.90
74934;DHT22;63499;53.232;7.492;2023-04-03T02:45:04;1.50;99.90
74934;DHT22;63499;53.232;7.492;2023-04-03T02:47:32;1.50;99.90
74934;DHT22;63499;53.232;7.492;2023-04-03T02:49:58;1.50;99.90
74934;DHT22;63499;53.232;7.492;2023-04-03T02:52:24;1.50;99.90
74934;DHT22;63499;53.232;7.492;2023-04-03T02:54:53;1.50;99.90
74934;DHT22;63499;53.232;7.492;2023-04-03T02:57:19;1.50;99.90
74934;DHT22;63499;53.232;7.492;2023-04-03T02:59:46;1.50;99.90
74934;DHT22;63499;53.232;7.492;2023-04-03T03:02:12;1.40;99.90
74934;DHT22;63499;53.232;7.492;2023-04-03T03:04:38;1.50;99.90
74934;DHT22;63499;53.232;7.492;2023-04-03T03:07:05;1.40;99.90
74934;DHT22;63499;53.232;7.492;2023-04-03T03:09:32;1.40;99.90
74934;DHT22;63499;53.232;7.492;2023-04-03T03:11:58;1.40;99.90
74934;DHT22;63499;53.232;7.492;2023-04-03T03:14:24;1.40;99.90
74934;DHT22;63499;53.232;7.492;2023-04-03T03:16:50;1.40;99.90
74934;DHT22;63499;53.232;7.492;2023-04-03T03:19:17;1.40;99.90
74934;DHT22;63499;53.232;7.492;2023-04-03T03:21:43;1.50;99.90
74934;DHT22;63499;53.232;7.492;2023-04-03T03:24:09;1.50;99.90
74934;DHT22;63499;53.232;7.492;2023-04-03T03:26:35;1.50;99.90
74934;DHT22;63499;53.232;7.492;2023-04-03T03:29:01;1.50;99.90
74934;DHT22;63499;53.232;7.492;2023-04-03T03:31:28;1.40;99.90
74934;DHT22;63499;53.232;7.492;2023-04-03T03:33:54;1.40;99.90
74934;DHT22;63499;53.232;7.492;2023-04-03T03:36:22;1.40;99.90
74934;DHT22;63499;53.232;7.492;2023-04-03T03:38:48;1.50;99.90
74934;DHT22;63499;53.232;7.492;2023-04-03T03:41:14;1.40;99.90
74934;DHT22;63499;53.232;7.492;2023-04-03T03:43:42;1.40;99.90
74934;DHT22;63499;53.232;7.492;2023-04-03T03:46:08;1.40;99.90
74934;DHT22;63499;53.232;7.492;2023-04-03T03:48:34;1.40;99.90
74934;DHT22;63499;53.232;7.492;2023-04-03T03:51:01;1.40;99.90
74934;DHT22;63499;53.232;7.492;2023-04-03T03:53:30;1.40;99.90
74934;DHT22;63499;53.232;7.492;2023-04-03T03:56:04;1.30;99.90
74934;DHT22;63499;53.232;7.492;2023-04-03T03:58:31;1.30;99.90
74934;DHT22;63499;53.232;7.492;2023-04-03T04:01:04;1.30;99.90
74934;DHT22;63499;53.232;7.492;2023-04-03T04:03:41;1.30;99.90
74934;DHT22;63499;53.232;7.492;2023-04-03T04:06:10;1.40;99.90
74934;DHT22;63499;53.232;7.492;2023-04-03T04:08:36;1.40;99.90
74934;DHT22;63499;53.232;7.492;2023-04-03T04:11:05;1.40;99.90
74934;DHT22;63499;53.232;7.492;2023-04-03T04:13:31;1.40;99.90
74934;DHT22;63499;53.232;7.492;2023-04-03T04:15:58;1.40;99.90
74934;DHT22;63499;53.232;7.492;2023-04-03T04:18:24;1.30;99.90
74934;DHT22;63499;53.232;7.492;2023-04-03T04:20:51;1.30;99.90
74934;DHT22;63499;53.232;7.492;2023-04-03T04:23:21;1.30;99.90
74934;DHT22;63499;53.232;7.492;2023-04-03T04:25:48;1.30;99.90
74934;DHT22;63499;53.232;7.492;2023-04-03T04:28:15;1.30;99.90
74934;DHT22;63499;53.232;7.492;2023-04-03T04:30:41;1.20;99.90
74934;DHT22;63499;53.232;7.492;2023-04-03T04:33:08;1.30;99.90
74934;DHT22;63499;53.232;7.492;2023-04-03T04:35:34;1.30;99.90
74934;DHT22;63499;53.232;7.492;2023-04-03T04:38:02;1.30;99.90
74934;DHT22;63499;53.232;7.492;2023-04-03T04:40:29;1.30;99.90
74934;DHT22;63499;53.232;7.492;2023-04-03T04:42:56;1.30;99.90
74934;DHT22;63499;53.232;7.492;2023-04-03T04:45:22;1.30;99.90
74934;DHT22;63499;53.232;7.492;2023-04-03T04:47:48;1.30;99.90
74934;DHT22;63499;53.232;7.492;2023-04-03T04:50:17;1.30;99.90
74934;DHT22;63499;53.232;7.492;2023-04-03T04:52:45;1.30;99.90
74934;DHT22;63499;53.232;7.492;2023-04-03T04:55:11;1.20;99.90
74934;DHT22;63499;53.232;7.492;2023-04-03T04:57:37;1.30;99.90
74934;DHT22;63499;53.232;7.492;2023-04-03T05:00:05;1.20;99.90
74934;DHT22;63499;53.232;7.492;2023-04-03T05:02:31;1.20;99.90
74934;DHT22;63499;53.232;7.492;2023-04-03T05:04:58;1.10;99.90
74934;DHT22;63499;53.232;7.492;2023-04-03T05:07:27;1.10;99.90
74934;DHT22;63499;53.232;7.492;2023-04-03T05:09:54;1.10;99.90
74934;DHT22;63499;53.232;7.492;2023-04-03T05:12:21;1.20;99.90
74934;DHT22;63499;53.232;7.492;2023-04-03T05:14:53;1.20;99.90
74934;DHT22;63499;53.232;7.492;2023-04-03T05:17:20;1.30;99.90
74934;DHT22;63499;53.232;7.492;2023-04-03T05:19:50;1.20;99.90
74934;DHT22;63499;53.232;7.492;2023-04-03T05:22:19;1.30;99.90
74934;DHT22;63499;53.232;7.492;2023-04-03T05:24:46;1.30;99.90
74934;DHT22;63499;53.232;7.492;2023-04-03T05:27:12;1.30;99.90
74934;DHT22;63499;53.232;7.492;2023-04-03T05:29:43;1.40;99.90
74934;DHT22;63499;53.232;7.492;2023-04-03T05:32:13;1.40;99.90
74934;DHT22;63499;53.232;7.492;2023-04-03T05:34:39;1.40;99.90
74934;DHT22;63499;53.232;7.492;2023-04-03T05:37:05;1.40;99.90
74934;DHT22;63499;53.232;7.492;2023-04-03T05:39:31;1.40;99.90
74934;DHT22;63499;53.232;7.492;2023-04-03T05:41:59;1.50;99.90
74934;DHT22;63499;53.232;7.492;2023-04-03T05:44:26;1.40;99.90
74934;DHT22;63499;53.232;7.492;2023-04-03T05:46:54;1.50;99.90
74934;DHT22;63499;53.232;7.492;2023-04-03T05:49:20;1.50;99.90
74934;DHT22;63499;53.232;7.492;2023-04-03T05:51:47;1.40;99.90
74934;DHT22;63499;53.232;7.492;2023-04-03T05:54:23;1.50;99.90
74934;DHT22;63499;53.232;7.492;2023-04-03T05:56:53;1.50;99.90
74934;DHT22;63499;53.232;7.492;2023-04-03T05:59:20;1.50;99.90
74934;DHT22;63499;53.232;7.492;2023-04-03T06:01:49;1.50;99.90
74934;DHT22;63499;53.232;7.492;2023-04-03T06:04:15;1.50;99.90
74934;DHT22;63499;53.232;7.492;2023-04-03T06:06:43;1.50;99.90
74934;DHT22;63499;53.232;7.492;2023-04-03T06:09:10;1.60;99.90
74934;DHT22;63499;53.232;7.492;2023-04-03T06:11:36;1.60;99.90
74934;DHT22;63499;53.232;7.492;2023-04-03T06:14:02;1.70;99.90
74934;DHT22;63499;53.232;7.492;2023-04-03T06:16:28;1.70;99.90
74934;DHT22;63499;53.232;7.492;2023-04-03T06:18:54;1.70;99.90
74934;DHT22;63499;53.232;7.492;2023-04-03T06:21:22;1.70;99.90
74934;DHT22;63499;53.232;7.492;2023-04-03T06:23:48;1.80;99.90
74934;DHT22;63499;53.232;7.492;2023-04-03T06:26:14;1.90;99.90
74934;DHT22;63499;53.232;7.492;2023-04-03T06:28:40;1.90;99.90
74934;DHT22;63499;53.232;7.492;2023-04-03T06:31:06;2.00;99.90
74934;DHT22;63499;53.232;7.492;2023-04-03T06:33:32;2.10;99.90
74934;DHT22;63499;53.232;7.492;2023-04-03T06:35:59;2.10;99.90
74934;DHT22;63499;53.232;7.492;2023-04-03T06:38:25;2.10;99.90
74934;DHT22;63499;53.232;7.492;2023-04-03T06:40:51;2.10;99.90
74934;DHT22;63499;53.232;7.492;2023-04-03T06:43:17;2.20;99.90
74934;DHT22;63499;53.232;7.492;2023-04-03T06:45:44;2.30;99.90
74934;DHT22;63499;53.232;7.492;2023-04-03T06:48:10;2.40;99.90
74934;DHT22;63499;53.232;7.492;2023-04-03T06:50:36;2.40;99.90
74934;DHT22;63499;53.232;7.492;2023-04-03T06:53:05;2.60;99.90
74934;DHT22;63499;53.232;7.492;2023-04-03T06:55:32;2.60;99.90
74934;DHT22;63499;53.232;7.492;2023-04-03T06:57:59;2.60;99.90
74934;DHT22;63499;53.232;7.492;2023-04-03T07:00:25;2.70;99.90
74934;DHT22;63499;53.232;7.492;2023-04-03T07:02:51;2.80;99.90
74934;DHT22;63499;53.232;7.492;2023-04-03T07:05:18;2.90;99.90
74934;DHT22;63499;53.232;7.492;2023-04-03T07:07:44;3.00;99.90
74934;DHT22;63499;53.232;7.492;2023-04-03T07:10:10;3.20;99.90
74934;DHT22;63499;53.232;7.492;2023-04-03T07:12:37;3.10;99.90
74934;DHT22;63499;53.232;7.492;2023-04-03T07:15:04;3.20;99.90
74934;DHT22;63499;53.232;7.492;2023-04-03T07:17:30;3.40;99.90
74934;DHT22;63499;53.232;7.492;2023-04-03T07:19:57;3.50;99.90
74934;DHT22;63499;53.232;7.492;2023-04-03T07:22:23;3.60;99.90
74934;DHT22;63499;53.232;7.492;2023-04-03T07:24:49;3.70;99.90
74934;DHT22;63499;53.232;7.492;2023-04-03T07:27:18;3.80;99.90
74934;DHT22;63499;53.232;7.492;2023-04-03T07:29:44;3.80;99.90
74934;DHT22;63499;53.232;7.492;2023-04-03T07:32:10;4.00;99.90
74934;DHT22;63499;53.232;7.492;2023-04-03T07:34:36;4.00;99.90
74934;DHT22;63499;53.232;7.492;2023-04-03T07:37:02;4.10;99.90
74934;DHT22;63499;53.232;7.492;2023-04-03T07:39:29;4.10;99.90
74934;DHT22;63499;53.232;7.492;2023-04-03T07:41:55;4.10;99.90
74934;DHT22;63499;53.232;7.492;2023-04-03T07:44:21;4.20;99.90
74934;DHT22;63499;53.232;7.492;2023-04-03T07:46:48;4.30;99.90
74934;DHT22;63499;53.232;7.492;2023-04-03T07:49:14;4.40;99.90
74934;DHT22;63499;53.232;7.492;2023-04-03T07:51:40;4.60;99.90
74934;DHT22;63499;53.232;7.492;2023-04-03T07:54:09;4.80;99.90
74934;DHT22;63499;53.232;7.492;2023-04-03T07:56:35;4.80;99.90
74934;DHT22;63499;53.232;7.492;2023-04-03T07:59:02;4.80;99.90
74934;DHT22;63499;53.232;7.492;2023-04-03T08:01:28;4.90;99.90
74934;DHT22;63499;53.232;7.492;2023-04-03T08:04:00;5.00;99.90
74934;DHT22;63499;53.232;7.492;2023-04-03T08:06:27;5.10;99.90
74934;DHT22;63499;53.232;7.492;2023-04-03T08:08:55;5.30;99.90
74934;DHT22;63499;53.232;7.492;2023-04-03T08:11:21;5.40;99.90
74934;DHT22;63499;53.232;7.492;2023-04-03T08:13:49;5.60;99.90
74934;DHT22;63499;53.232;7.492;2023-04-03T08:16:16;5.60;99.90
74934;DHT22;63499;53.232;7.492;2023-04-03T08:18:43;5.70;99.90
74934;DHT22;63499;53.232;7.492;2023-04-03T08:21:09;5.90;99.90
74934;DHT22;63499;53.232;7.492;2023-04-03T08:23:36;5.90;99.90
74934;DHT22;63499;53.232;7.492;2023-04-03T08:26:06;6.10;99.90
74934;DHT22;63499;53.232;7.492;2023-04-03T08:28:33;6.10;99.90
74934;DHT22;63499;53.232;7.492;2023-04-03T08:31:02;6.20;99.90
74934;DHT22;63499;53.232;7.492;2023-04-03T08:33:28;6.30;99.90
74934;DHT22;63499;53.232;7.492;2023-04-03T08:35:55;6.40;99.90
74934;DHT22;63499;53.232;7.492;2023-04-03T08:38:21;6.50;99.90
74934;DHT22;63499;53.232;7.492;2023-04-03T08:40:47;6.60;99.90
74934;DHT22;63499;53.232;7.492;2023-04-03T08:45:59;6.70;99.90
74934;DHT22;63499;53.232;7.492;2023-04-03T08:48:27;6.90;99.90
74934;DHT22;63499;53.232;7.492;2023-04-03T08:50:56;7.00;99.90
74934;DHT22;63499;53.232;7.492;2023-04-03T08:53:28;7.20;99.90
74934;DHT22;63499;53.232;7.492;2023-04-03T08:55:56;7.30;99.90
74934;DHT22;63499;53.232;7.492;2023-04-03T08:58:24;7.30;99.90
74934;DHT22;63499;53.232;7.492;2023-04-03T09:03:31;7.40;99.90
74934;DHT22;63499;53.232;7.492;2023-04-03T09:11:12;7.50;99.90
74934;DHT22;63499;53.232;7.492;2023-04-03T09:14:04;7.60;99.90
74934;DHT22;63499;53.232;7.492;2023-04-03T09:16:36;7.70;98.40
74934;DHT22;63499;53.232;7.492;2023-04-03T09:19:07;7.90;98.80
74934;DHT22;63499;53.232;7.492;2023-04-03T09:21:39;8.10;96.50
74934;DHT22;63499;53.232;7.492;2023-04-03T09:24:09;8.10;94.50
74934;DHT22;63499;53.232;7.492;2023-04-03T09:26:39;8.10;95.30
74934;DHT22;63499;53.232;7.492;2023-04-03T09:29:10;8.10;93.80
74934;DHT22;63499;53.232;7.492;2023-04-03T09:31:40;8.30;95.30
74934;DHT22;63499;53.232;7.492;2023-04-03T09:34:27;8.50;93.30
74934;DHT22;63499;53.232;7.492;2023-04-03T09:36:55;8.70;90.60
74934;DHT22;63499;53.232;7.492;2023-04-03T09:39:23;8.80;91.30
74934;DHT22;63499;53.232;7.492;2023-04-03T09:42:02;8.90;92.70
74934;DHT22;63499;53.232;7.492;2023-04-03T09:44:36;9.00;91.00
74934;DHT22;63499;53.232;7.492;2023-04-03T09:47:19;9.20;90.60
74934;DHT22;63499;53.232;7.492;2023-04-03T09:49:49;9.10;85.70
74934;DHT22;63499;53.232;7.492;2023-04-03T09:52:19;9.10;84.30
74934;DHT22;63499;53.232;7.492;2023-04-03T09:54:46;9.30;85.00
74934;DHT22;63499;53.232;7.492;2023-04-03T09:57:14;9.40;84.20
74934;DHT22;63499;53.232;7.492;2023-04-03T09:59:42;9.20;80.60
74934;DHT22;63499;53.232;7.492;2023-04-03T10:04:41;9.40;84.80
74934;DHT22;63499;53.232;7.492;2023-04-03T10:07:30;9.50;81.60
74934;DHT22;63499;53.232;7.492;2023-04-03T10:09:58;9.60;81.60
74934;DHT22;63499;53.232;7.492;2023-04-03T10:12:25;9.60;78.70
74934;DHT22;63499;53.232;7.492;2023-04-03T10:22:20;10.10;75.40
74934;DHT22;63499;53.232;7.492;2023-04-03T10:25:00;10.20;71.80
74934;DHT22;63499;53.232;7.492;2023-04-03T10:34:59;10.40;76.10
74934;DHT22;63499;53.232;7.492;2023-04-03T10:37:35;10.20;71.80
74934;DHT22;63499;53.232;7.492;2023-04-03T10:47:54;10.90;74.70
74934;DHT22;63499;53.232;7.492;2023-04-03T10:58:04;11.00;70.20
74934;DHT22;63499;53.232;7.492;2023-04-03T11:00:42;10.90;67.60
74934;DHT22;63499;53.232;7.492;2023-04-03T11:03:26;11.10;68.00
74934;DHT22;63499;53.232;7.492;2023-04-03T11:05:53;11.00;68.70
74934;DHT22;63499;53.232;7.492;2023-04-03T11:10:50;10.80;68.20
74934;DHT22;63499;53.232;7.492;2023-04-03T11:13:22;11.10;71.20
74934;DHT22;63499;53.232;7.492;2023-04-03T11:15:49;11.40;69.10
74934;DHT22;63499;53.232;7.492;2023-04-03T11:18:22;11.70;67.70
74934;DHT22;63499;53.232;7.492;2023-04-03T11:21:05;12.10;69.10
74934;DHT22;63499;53.232;7.492;2023-04-03T11:23:37;12.30;68.70
74934;DHT22;63499;53.232;7.492;2023-04-03T11:26:27;12.70;67.30
74934;DHT22;63499;53.232;7.492;2023-04-03T11:28:59;12.20;62.60
74934;DHT22;63499;53.232;7.492;2023-04-03T11:31:29;12.10;62.40
74934;DHT22;63499;53.232;7.492;2023-04-03T11:36:44;12.00;63.50
74934;DHT22;63499;53.232;7.492;2023-04-03T11:41:41;12.50;65.40
74934;DHT22;63499;53.232;7.492;2023-04-03T11:47:10;12.40;63.50
74934;DHT22;63499;53.232;7.492;2023-04-03T11:49:57;12.60;63.60
74934;DHT22;63499;53.232;7.492;2023-04-03T12:16:19;12.40;66.50
74934;DHT22;63499;53.232;7.492;2023-04-03T12:24:04;13.10;61.30
74934;DHT22;63499;53.232;7.492;2023-04-03T12:26:43;12.90;62.10
74934;DHT22;63499;53.232;7.492;2023-04-03T12:29:14;13.20;63.50
74934;DHT22;63499;53.232;7.492;2023-04-03T12:31:46;13.00;61.40
74934;DHT22;63499;53.232;7.492;2023-04-03T12:34:35;13.20;62.10
74934;DHT22;63499;53.232;7.492;2023-04-03T12:37:16;13.20;60.00
74934;DHT22;63499;53.232;7.492;2023-04-03T12:45:00;13.10;61.90
74934;DHT22;63499;53.232;7.492;2023-04-03T12:47:29;13.60;64.30
74934;DHT22;63499;53.232;7.492;2023-04-03T12:49:59;13.50;59.80
74934;DHT22;63499;53.232;7.492;2023-04-03T12:52:37;13.50;59.80
74934;DHT22;63499;53.232;7.492;2023-04-03T12:55:07;13.30;59.70
74934;DHT22;63499;53.232;7.492;2023-04-03T12:57:36;13.40;60.70
74934;DHT22;63499;53.232;7.492;2023-04-03T13:00:18;13.70;61.70
74934;DHT22;63499;53.232;7.492;2023-04-03T13:02:44;13.70;58.50
74934;DHT22;63499;53.232;7.492;2023-04-03T13:05:14;13.70;59.50
74934;DHT22;63499;53.232;7.492;2023-04-03T13:07:42;13.90;59.20
74934;DHT22;63499;53.232;7.492;2023-04-03T13:15:18;14.00;57.60
74934;DHT22;63499;53.232;7.492;2023-04-03T13:17:45;13.90;55.80
74934;DHT22;63499;53.232;7.492;2023-04-03T13:20:20;14.00;58.80
74934;DHT22;63499;53.232;7.492;2023-04-03T13:22:51;14.10;58.80
74934;DHT22;63499;53.232;7.492;2023-04-03T13:25:19;14.50;59.20
74934;DHT22;63499;53.232;7.492;2023-04-03T13:27:46;14.50;57.50
74934;DHT22;63499;53.232;7.492;2023-04-03T13:32:45;14.40;58.60
74934;DHT22;63499;53.232;7.492;2023-04-03T13:35:28;14.10;56.00
74934;DHT22;63499;53.232;7.492;2023-04-03T13:37:56;14.10;56.30
74934;DHT22;63499;53.232;7.492;2023-04-03T13:40:24;13.90;56.40
74934;DHT22;63499;53.232;7.492;2023-04-03T13:43:04;14.10;57.90
74934;DHT22;63499;53.232;7.492;2023-04-03T13:45:32;14.30;57.20
74934;DHT22;63499;53.232;7.492;2023-04-03T13:50:48;14.70;56.10
74934;DHT22;63499;53.232;7.492;2023-04-03T13:53:18;14.90;55.80
74934;DHT22;63499;53.232;7.492;2023-04-03T13:56:04;15.30;54.70
74934;DHT22;63499;53.232;7.492;2023-04-03T13:58:32;15.20;56.00
74934;DHT22;63499;53.232;7.492;2023-04-03T14:03:52;14.90;52.90
74934;DHT22;63499;53.232;7.492;2023-04-03T14:06:18;14.50;53.30
74934;DHT22;63499;53.232;7.492;2023-04-03T14:08:44;14.70;56.20
74934;DHT22;63499;53.232;7.492;2023-04-03T14:11:25;15.20;56.40
74934;DHT22;63499;53.232;7.492;2023-04-03T14:13:53;15.60;56.70
74934;DHT22;63499;53.232;7.492;2023-04-03T14:16:21;16.00;57.00
74934;DHT22;63499;53.232;7.492;2023-04-03T14:18:47;16.70;56.60
74934;DHT22;63499;53.232;7.492;2023-04-03T14:21:14;16.80;54.30
74934;DHT22;63499;53.232;7.492;2023-04-03T17:17:46;11.30;57.50
74934;DHT22;63499;53.232;7.492;2023-04-03T17:20:13;11.10;59.70
74934;DHT22;63499;53.232;7.492;2023-04-03T17:22:40;11.00;60.40
74934;DHT22;63499;53.232;7.492;2023-04-03T17:25:07;10.80;61.10
74934;DHT22;63499;53.232;7.492;2023-04-03T17:27:33;10.60;61.80
74934;DHT22;63499;53.232;7.492;2023-04-03T17:29:59;10.40;62.60
74934;DHT22;63499;53.232;7.492;2023-04-03T17:32:28;10.20;63.10
74934;DHT22;63499;53.232;7.492;2023-04-03T17:34:55;10.10;63.40
74934;DHT22;63499;53.232;7.492;2023-04-03T17:37:21;10.00;64.20
74934;DHT22;63499;53.232;7.492;2023-04-03T17:39:47;10.00;65.20
74934;DHT22;63499;53.232;7.492;2023-04-03T17:42:14;9.90;65.30
74934;DHT22;63499;53.232;7.492;2023-04-03T17:44:44;9.80;65.70
74934;DHT22;63499;53.232;7.492;2023-04-03T17:47:10;9.60;66.40
74934;DHT22;63499;53.232;7.492;2023-04-03T17:49:38;9.50;67.40
74934;DHT22;63499;53.232;7.492;2023-04-03T17:52:05;9.40;68.00
74934;DHT22;63499;53.232;7.492;2023-04-03T17:54:34;9.40;68.80
74934;DHT22;63499;53.232;7.492;2023-04-03T17:57:00;9.30;69.10
74934;DHT22;63499;53.232;7.492;2023-04-03T17:59:29;9.30;69.60
74934;DHT22;63499;53.232;7.492;2023-04-03T18:01:56;9.20;70.40
74934;DHT22;63499;53.232;7.492;2023-04-03T18:04:22;9.00;71.10
74934;DHT22;63499;53.232;7.492;2023-04-03T18:06:51;9.00;72.30
74934;DHT22;63499;53.232;7.492;2023-04-03T18:09:23;8.90;73.10
74934;DHT22;63499;53.232;7.492;2023-04-03T18:11:51;8.90;73.90
74934;DHT22;63499;53.232;7.492;2023-04-03T18:14:21;8.80;74.60
74934;DHT22;63499;53.232;7.492;2023-04-03T18:16:48;8.70;75.70
74934;DHT22;63499;53.232;7.492;2023-04-03T18:19:14;8.70;76.10
74934;DHT22;63499;53.232;7.492;2023-04-03T18:21:40;8.70;76.60
74934;DHT22;63499;53.232;7.492;2023-04-03T18:24:10;8.70;77.10
74934;DHT22;63499;53.232;7.492;2023-04-03T18:26:37;8.70;77.40
74934;DHT22;63499;53.232;7.492;2023-04-03T18:29:03;8.70;77.70
74934;DHT22;63499;53.232;7.492;2023-04-03T18:31:34;8.70;78.20
74934;DHT22;63499;53.232;7.492;2023-04-03T18:34:01;8.60;78.60
74934;DHT22;63499;53.232;7.492;2023-04-03T18:36:28;8.60;79.50
74934;DHT22;63499;53.232;7.492;2023-04-03T18:38:54;8.50;80.10
74934;DHT22;63499;53.232;7.492;2023-04-03T18:41:22;8.40;81.00
74934;DHT22;63499;53.232;7.492;2023-04-03T18:43:50;8.30;81.70
74934;DHT22;63499;53.232;7.492;2023-04-03T18:46:16;8.30;82.20
74934;DHT22;63499;53.232;7.492;2023-04-03T18:48:42;8.20;83.10
74934;DHT22;63499;53.232;7.492;2023-04-03T18:51:11;8.10;83.50
74934;DHT22;63499;53.232;7.492;2023-04-03T18:53:38;8.10;84.10
74934;DHT22;63499;53.232;7.492;2023-04-03T18:56:04;8.00;85.10
74934;DHT22;63499;53.232;7.492;2023-04-03T18:58:31;7.80;86.00
74934;DHT22;63499;53.232;7.492;2023-04-03T19:00:57;7.80;86.80
74934;DHT22;63499;53.232;7.492;2023-04-03T19:03:24;7.70;87.40
74934;DHT22;63499;53.232;7.492;2023-04-03T19:05:51;7.60;88.40
74934;DHT22;63499;53.232;7.492;2023-04-03T19:08:19;7.50;89.10
74934;DHT22;63499;53.232;7.492;2023-04-03T19:10:46;7.50;89.90
74934;DHT22;63499;53.232;7.492;2023-04-03T19:13:13;7.40;90.10
74934;DHT22;63499;53.232;7.492;2023-04-03T19:15:39;7.40;90.40
74934;DHT22;63499;53.232;7.492;2023-04-03T19:18:05;7.40;90.50
74934;DHT22;63499;53.232;7.492;2023-04-03T19:20:32;7.30;91.00
74934;DHT22;63499;53.232;7.492;2023-04-03T19:22:58;7.20;91.50
74934;DHT22;63499;53.232;7.492;2023-04-03T19:25:25;7.10;92.20
74934;DHT22;63499;53.232;7.492;2023-04-03T19:27:51;7.00;92.30
74934;DHT22;63499;53.232;7.492;2023-04-03T19:30:17;7.00;92.60
74934;DHT22;63499;53.232;7.492;2023-04-03T19:32:44;7.00;92.90
74934;DHT22;63499;53.232;7.492;2023-04-03T19:35:10;6.90;93.20
74934;DHT22;63499;53.232;7.492;2023-04-03T19:37:39;6.90;93.70
74934;DHT22;63499;53.232;7.492;2023-04-03T19:40:05;6.90;93.90
74934;DHT22;63499;53.232;7.492;2023-04-03T19:42:32;6.90;94.30
74934;DHT22;63499;53.232;7.492;2023-04-03T19:44:59;6.80;94.50
74934;DHT22;63499;53.232;7.492;2023-04-03T19:47:25;6.80;94.70
74934;DHT22;63499;53.232;7.492;2023-04-03T19:49:54;6.80;95.10
74934;DHT22;63499;53.232;7.492;2023-04-03T19:52:21;6.80;95.40
74934;DHT22;63499;53.232;7.492;2023-04-03T19:54:47;6.80;95.70
74934;DHT22;63499;53.232;7.492;2023-04-03T19:57:13;6.80;96.30
74934;DHT22;63499;53.232;7.492;2023-04-03T19:59:40;6.70;96.50
74934;DHT22;63499;53.232;7.492;2023-04-03T20:02:06;6.70;96.70
74934;DHT22;63499;53.232;7.492;2023-04-03T20:04:35;6.60;97.20
74934;DHT22;63499;53.232;7.492;2023-04-03T20:07:01;6.60;97.40
74934;DHT22;63499;53.232;7.492;2023-04-03T20:09:27;6.60;98.20
74934;DHT22;63499;53.232;7.492;2023-04-03T20:11:56;6.50;98.50
74934;DHT22;63499;53.232;7.492;2023-04-03T20:14:24;6.50;99.20
74934;DHT22;63499;53.232;7.492;2023-04-03T20:16:52;6.50;99.40
74934;DHT22;63499;53.232;7.492;2023-04-03T20:19:18;6.40;99.90
74934;DHT22;63499;53.232;7.492;2023-04-03T20:21:45;6.30;99.90
74934;DHT22;63499;53.232;7.492;2023-04-03T20:24:11;6.20;99.90
74934;DHT22;63499;53.232;7.492;2023-04-03T20:26:38;6.20;99.90
74934;DHT22;63499;53.232;7.492;2023-04-03T20:29:09;6.10;99.90
74934;DHT22;63499;53.232;7.492;2023-04-03T20:31:35;6.10;99.90